• Join FlightAware (Why Join?)
  • Login
  • US Flag 
12:02AM EDT


 

Airport Tracker/Info


-or-


 

Live Flight TrackerFlight Track Log ✈ N516QS ✈ 23-May-2013 ✈ WIHH / HLP - PGUM

Flight Track Log - Related Links

Times and Time Zones

All times are in EDT time to prevent confusion due to time zone crossing. See the N516QS flight status page for this flight to view local times or setup timezone preferences in your user account.

Time Position Orientation Groundspeed Altitude Reporting Facility
EDT Latitude Longitude Course Direction KTS MPH feet Rate Location/Type
04:54PM 3.5000 133.5000 45° Northeast 479 551 45,000  Level Oakland Oceanic (ODAPS)
05:00PM 4.7319 134.7254 45° Northeast 479 551 45,000  Level FlightAware Transoceanic
05:01PM 4.8266 134.8198 45° Northeast 479 551 45,000  Level FlightAware Transoceanic
05:02PM 4.9212 134.9143 45° Northeast 479 551 45,000  Level FlightAware Transoceanic
05:03PM 5.0159 135.0088 45° Northeast 479 551 45,000  Level FlightAware Transoceanic
05:04PM 5.1105 135.1033 45° Northeast 479 551 45,000  Level FlightAware Transoceanic
05:05PM 5.2051 135.1978 45° Northeast 479 551 45,000  Level FlightAware Transoceanic
05:06PM 5.2997 135.2924 45° Northeast 479 551 45,000  Level FlightAware Transoceanic
05:07PM 5.3943 135.3870 45° Northeast 479 551 45,000  Level FlightAware Transoceanic
05:08PM 5.4889 135.4816 45° Northeast 479 551 45,000  Level FlightAware Transoceanic
05:09PM 5.5835 135.5762 45° Northeast 479 551 45,000  Level FlightAware Transoceanic
05:10PM 5.6780 135.6709 45° Northeast 479 551 45,000  Level FlightAware Transoceanic
05:11PM 5.7726 135.7656 45° Northeast 479 551 45,000  Level FlightAware Transoceanic
05:12PM 5.8671 135.8604 45° Northeast 479 551 45,000  Level FlightAware Transoceanic
05:13PM 5.9616 135.9552 45° Northeast 479 551 45,000  Level FlightAware Transoceanic
05:14PM 6.0561 136.0500 45° Northeast 479 551 45,000  Level FlightAware Transoceanic
05:15PM 6.1505 136.1448 45° Northeast 479 551 45,000  Level FlightAware Transoceanic
05:16PM 6.2450 136.2397 45° Northeast 479 551 45,000  Level FlightAware Transoceanic
05:17PM 6.3394 136.3346 45° Northeast 479 551 45,000  Level FlightAware Transoceanic
05:18PM 6.4339 136.4296 45° Northeast 479 551 45,000  Level FlightAware Transoceanic
05:19PM 6.5283 136.5245 45° Northeast 479 551 45,000  Level FlightAware Transoceanic
05:20PM 6.6227 136.6196 45° Northeast 479 551 45,000  Level FlightAware Transoceanic
05:21PM 6.7170 136.7146 45° Northeast 479 551 45,000  Level FlightAware Transoceanic
05:22PM 6.8114 136.8097 45° Northeast 479 551 45,000  Level FlightAware Transoceanic
05:23PM 6.9057 136.9048 45° Northeast 479 551 45,000  Level FlightAware Transoceanic
05:24PM 7.0000 137.0000 46° Northeast 479 551 45,000  Level FlightAware Transoceanic
05:25PM 7.0945 137.0993 46° Northeast 479 551 45,000  Level FlightAware Transoceanic
05:26PM 7.1889 137.1987 46° Northeast 479 551 45,000  Level FlightAware Transoceanic
05:27PM 7.2834 137.2981 46° Northeast 479 551 45,000  Level FlightAware Transoceanic
05:28PM 7.3778 137.3976 46° Northeast 479 551 45,000  Level FlightAware Transoceanic
05:29PM 7.4722 137.4971 46° Northeast 479 551 45,000  Level FlightAware Transoceanic
05:30PM 7.5666 137.5966 46° Northeast 479 551 45,000  Level FlightAware Transoceanic
05:31PM 7.6609 137.6962 46° Northeast 479 551 45,000  Level FlightAware Transoceanic
05:32PM 7.7553 137.7958 46° Northeast 479 551 45,000  Level FlightAware Transoceanic
05:33PM 7.8496 137.8955 46° Northeast 479 551 45,000  Level FlightAware Transoceanic
05:34PM 7.9438 137.9952 46° Northeast 479 551 45,000  Level FlightAware Transoceanic
05:35PM 8.0381 138.0950 46° Northeast 479 551 45,000  Level FlightAware Transoceanic
05:36PM 8.1323 138.1948 46° Northeast 479 551 45,000  Level FlightAware Transoceanic
05:37PM 8.2266 138.2947 46° Northeast 479 551 45,000  Level FlightAware Transoceanic
05:38PM 8.3207 138.3946 46° Northeast 479 551 45,000  Level FlightAware Transoceanic
05:39PM 8.4149 138.4945 46° Northeast 479 551 45,000  Level FlightAware Transoceanic
05:40PM 8.5090 138.5945 46° Northeast 479 551 45,000  Level FlightAware Transoceanic
05:41PM 8.6031 138.6946 46° Northeast 479 551 45,000  Level FlightAware Transoceanic
05:42PM 8.6972 138.7947 46° Northeast 479 551 45,000  Level FlightAware Transoceanic
05:43PM 8.7913 138.8948 46° Northeast 479 551 45,000  Level FlightAware Transoceanic
05:44PM 8.8853 138.9951 46° Northeast 479 551 45,000  Level FlightAware Transoceanic
05:45PM 8.9793 139.0953 47° Northeast 479 551 45,000  Level FlightAware Transoceanic
05:46PM 9.0733 139.1956 47° Northeast 479 551 45,000  Level FlightAware Transoceanic
05:47PM 9.1672 139.2960 47° Northeast 479 551 45,000  Level FlightAware Transoceanic
05:48PM 9.2612 139.3964 47° Northeast 479 551 45,000  Level FlightAware Transoceanic
05:49PM 9.3551 139.4969 47° Northeast 479 551 45,000  Level FlightAware Transoceanic
05:50PM 9.4489 139.5974 47° Northeast 479 551 45,000  Level FlightAware Transoceanic
05:51PM 9.5428 139.6979 47° Northeast 479 551 45,000  Level FlightAware Transoceanic
05:52PM 9.6366 139.7986 47° Northeast 479 551 45,000  Level FlightAware Transoceanic
05:53PM 9.7303 139.8993 47° Northeast 479 551 45,000  Level FlightAware Transoceanic
05:54PM 9.8241 140.0000 47° Northeast 479 551 45,000  Level FlightAware Transoceanic
05:55PM 9.9178 140.1008 47° Northeast 479 551 45,000  Level FlightAware Transoceanic
05:56PM 10.0115 140.2017 47° Northeast 479 551 45,000  Level FlightAware Transoceanic
05:57PM 10.1052 140.3026 47° Northeast 479 551 45,000  Level FlightAware Transoceanic
05:58PM 10.1988 140.4036 47° Northeast 479 551 45,000  Level FlightAware Transoceanic
05:59PM 10.2924 140.5046 47° Northeast 479 551 45,000  Level FlightAware Transoceanic
06:00PM 10.3860 140.6057 47° Northeast 479 551 45,000  Level FlightAware Transoceanic
06:01PM 10.4795 140.7068 47° Northeast 479 551 45,000  Level FlightAware Transoceanic
06:02PM 10.5730 140.8081 47° Northeast 479 551 45,000  Level FlightAware Transoceanic
06:03PM 10.6665 140.9093 47° Northeast 479 551 45,000  Level FlightAware Transoceanic
06:04PM 10.7599 141.0107 47° Northeast 479 551 45,000  Level FlightAware Transoceanic
06:05PM 10.8533 141.1121 47° Northeast 479 551 45,000  Level FlightAware Transoceanic
06:06PM 10.9467 141.2135 47° Northeast 479 551 45,000  Level FlightAware Transoceanic
06:07PM 11.0400 141.3151 47° Northeast 479 551 45,000  Level FlightAware Transoceanic
06:08PM 11.2344 141.5350 48° Northeast  Level FlightAware Approximate
06:09PM 11.5206 141.8583 48° Northeast  Level FlightAware Approximate
06:10PM 11.8064 142.1823 48° Northeast  Level FlightAware Approximate
06:11PM 12.0918 142.5069 48° Northeast  Level FlightAware Approximate
06:11PM 11.2167 141.5333 59° Northeast 480 552 45,000  Level Guam Center
06:12PM 12.3475 142.8546 59° Northeast  Level FlightAware Approximate
06:12PM 11.2833 141.6333 56° Northeast 470 541 45,000  Level Guam Center
06:13PM 12.5701 143.2277 59° Northeast  Level FlightAware Approximate
06:13PM 11.3833 141.7333 44° Northeast 470 541 45,000  Level Guam Center
06:14PM 12.7915 143.6020 59° Northeast  Level FlightAware Approximate
06:14PM 11.4667 141.8167 44° Northeast 460 529 45,000  Level Guam Center
06:15PM 13.0122 143.9770 59° Northeast  Level FlightAware Approximate
06:15PM 11.5500 141.9167 50° Northeast 470 541 45,000  Level Guam Center
06:16PM 13.2324 144.3526 59° Northeast  Level FlightAware Approximate
06:16PM 11.6333 142.0167 50° Northeast 460 529 45,000  Level Guam Center
06:17PM 11.7333 142.1167 44° Northeast 460 529 45,000  Level Guam Center
06:18PM 11.8167 142.2167 50° Northeast 470 541 45,000  Level Guam Center
06:19PM 11.9000 142.3167 50° Northeast 470 541 45,000  Level Guam Center
06:20PM 11.9833 142.4167 50° Northeast 460 529 45,000 -300 Level Guam Center
06:21PM 12.0667 142.5167 50° Northeast 470 541 44,500 -900 Descending Guam Center
06:22PM 12.1667 142.6000 39° Northeast 460 529 43,200 -1,560 Descending Guam Center
06:23PM 12.2333 142.7000 56° Northeast 460 529 41,400 -2,160 Descending Guam Center
06:24PM 12.3167 142.8167 54° Northeast 470 541 38,900 -2,460 Descending Guam Center
06:25PM 12.3833 142.9333 60° Northeast 480 552 36,500 -2,400 Descending Guam Center
06:26PM 12.4500 143.0500 60° Northeast 500 575 34,100 -2,400 Descending Guam Center
06:27PM 12.5167 143.1833 63° Northeast 510 587 31,800 -2,400 Descending Guam Center
06:28PM 12.6000 143.3000 54° Northeast 510 587 29,300 -2,520 Descending Guam Center
06:29PM 12.6667 143.4167 60° Northeast 490 564 26,800 -2,400 Descending Guam Center
06:30PM 12.7500 143.5333 54° Northeast 490 564 24,500 -2,460 Descending Guam Center
06:31PM 12.8000 143.6500 66° East 460 529 21,900 -2,340 Descending Guam Center
06:32PM 12.8667 143.7667 60° Northeast 440 506 19,900 -2,220 Descending Guam Center
06:33PM 12.9333 143.8667 56° Northeast 410 472 17,500 -2,340 Descending Guam Center
06:35PM 13.0500 144.0500 57° Northeast 350 403 12,900 -2,160 Descending Guam Center
06:36PM 13.1000 144.1333 58° Northeast 320 368 11,000 -1,740 Descending Guam Center
06:37PM 13.1333 144.2000 63° Northeast 290 334 9,500 -1,500 Descending Guam Center